Time;durP1;ratioP1;P1;durP2;ratioP2;P2;SDS_P1;SDS_P2;PMS_P1;PMS_P2;Temp;Humidity;BMP_temperature;BMP_pressure;BME280_temperature;BME280_humidity;BME280_pressure;Samples;Min_cycle;Max_cycle;Signal;HPM_P1;HPM_P2
2024/03/18 00:00:24;;;;;;;13.30;12.00;;;8.80;99.90;;;;;;5125707;27;20093;-64
2024/03/18 00:02:53;;;;;;;14.80;13.30;;;8.70;99.90;;;;;;5128821;27;20042;-64
2024/03/18 00:05:20;;;;;;;15.88;12.95;;;8.70;99.90;;;;;;5121516;27;20039;-64
2024/03/18 00:07:49;;;;;;;14.13;12.73;;;8.70;99.90;;;;;;5122345;27;20546;-64
2024/03/18 00:10:15;;;;;;;15.75;14.15;;;8.70;99.90;;;;;;5124058;27;20430;-64
2024/03/18 00:12:43;;;;;;;14.88;13.02;;;8.70;99.90;;;;;;5123241;27;20044;-64
2024/03/18 00:15:10;;;;;;;14.80;13.20;;;8.70;99.90;;;;;;5123694;27;20386;-64
2024/03/18 00:17:37;;;;;;;15.52;13.77;;;8.70;99.90;;;;;;5153535;27;20039;-64
2024/03/18 00:20:12;;;;;;;16.42;13.98;;;8.60;99.90;;;;;;5124841;27;20131;-64
2024/03/18 00:22:39;;;;;;;;;;;8.50;99.90;;;;;;5124188;27;20481;-64
2024/03/18 00:25:06;;;;;;;15.93;13.57;;;8.60;99.90;;;;;;5123543;27;20346;-64
2024/03/18 00:27:32;;;;;;;16.63;13.55;;;8.60;99.90;;;;;;5152502;27;20035;-64
2024/03/18 00:29:59;;;;;;;16.75;14.35;;;8.50;99.90;;;;;;5154921;27;20085;-64
2024/03/18 00:32:24;;;;;;;15.57;13.93;;;8.60;99.90;;;;;;5153422;27;20611;-64
2024/03/18 00:34:51;;;;;;;15.73;13.95;;;8.60;99.90;;;;;;5118595;27;20063;-64
2024/03/18 00:37:16;;;;;;;15.50;13.65;;;8.50;99.90;;;;;;5125569;27;20039;-64
2024/03/18 00:39:43;;;;;;;15.55;13.63;;;8.50;99.90;;;;;;5103029;27;20031;-64
2024/03/18 00:42:09;;;;;;;16.40;13.45;;;8.50;99.90;;;;;;5122090;27;20595;-64
2024/03/18 00:44:35;;;;;;;14.45;12.95;;;8.60;99.90;;;;;;5122479;27;20051;-64
2024/03/18 00:47:02;;;;;;;15.98;12.93;;;8.50;99.90;;;;;;5122715;27;20404;-64
2024/03/18 00:49:29;;;;;;;15.02;13.52;;;8.50;99.90;;;;;;5133089;27;20038;-64
2024/03/18 00:51:55;;;;;;;14.40;12.90;;;8.50;99.90;;;;;;5122995;27;20493;-64
2024/03/18 00:54:20;;;;;;;15.90;13.73;;;8.50;99.90;;;;;;5122396;27;20035;-64
2024/03/18 00:56:46;;;;;;;16.65;13.65;;;8.50;99.90;;;;;;5121342;27;20397;-64
2024/03/18 00:59:14;;;;;;;15.10;13.50;;;8.50;99.90;;;;;;5120385;27;20042;-64
2024/03/18 01:01:39;;;;;;;15.23;12.60;;;8.50;99.90;;;;;;5119685;27;20035;-64
2024/03/18 01:04:05;;;;;;;15.90;14.20;;;8.50;99.90;;;;;;5139763;27;20047;-64
2024/03/18 01:06:31;;;;;;;15.52;13.32;;;8.50;99.90;;;;;;5117210;27;20045;-64
2024/03/18 01:08:57;;;;;;;13.90;12.40;;;8.50;99.90;;;;;;5119868;27;20151;-64
2024/03/18 01:11:23;;;;;;;14.45;12.90;;;8.50;99.90;;;;;;5121756;27;20042;-64
2024/03/18 01:13:49;;;;;;;16.33;14.25;;;8.50;99.90;;;;;;5124805;27;20031;-64
2024/03/18 01:16:19;;;;;;;15.82;12.85;;;8.50;99.90;;;;;;5150016;27;20040;-64
2024/03/18 01:18:46;;;;;;;19.58;13.60;;;8.50;99.90;;;;;;5152939;27;20039;-64
2024/03/18 01:21:11;;;;;;;17.75;12.98;;;8.50;99.90;;;;;;5120742;27;20047;-64
2024/03/18 01:23:37;;;;;;;14.70;13.23;;;8.50;99.90;;;;;;5118717;27;20039;-64
2024/03/18 01:26:03;;;;;;;13.73;12.30;;;8.40;99.90;;;;;;5121227;27;20058;-64
2024/03/18 01:28:29;;;;;;;14.98;13.57;;;8.50;99.90;;;;;;5123126;27;20036;-64
2024/03/18 01:30:56;;;;;;;14.88;13.38;;;8.50;99.90;;;;;;5120916;27;20035;-64
2024/03/18 01:33:23;;;;;;;14.43;12.82;;;8.50;99.90;;;;;;5119895;27;20046;-64
2024/03/18 01:35:50;;;;;;;16.80;13.65;;;8.50;99.90;;;;;;5119358;27;20458;-64
2024/03/18 01:38:16;;;;;;;17.23;12.90;;;8.50;99.90;;;;;;5120187;27;20045;-64
2024/03/18 01:40:44;;;;;;;16.08;14.45;;;8.40;99.90;;;;;;5119553;27;20060;-64
2024/03/18 01:43:10;;;;;;;16.30;14.25;;;8.40;99.90;;;;;;5122002;27;20083;-64
2024/03/18 01:45:38;;;;;;;17.42;14.48;;;8.40;99.90;;;;;;5120590;27;20043;-64
2024/03/18 01:48:05;;;;;;;16.42;14.57;;;8.40;99.90;;;;;;5121870;27;20120;-64
2024/03/18 01:50:31;;;;;;;17.50;13.95;;;8.40;99.90;;;;;;5124611;27;20039;-64
2024/03/18 01:52:57;;;;;;;16.13;14.30;;;8.40;99.90;;;;;;5148686;27;20394;-64
2024/03/18 01:55:23;;;;;;;16.77;14.98;;;8.40;99.90;;;;;;5108177;27;20150;-64
2024/03/18 01:57:49;;;;;;;15.63;14.02;;;8.30;99.90;;;;;;5120232;27;20049;-64
2024/03/18 02:00:15;;;;;;;16.77;15.05;;;8.30;99.90;;;;;;5119276;27;20042;-64
2024/03/18 02:02:44;;;;;;;23.77;16.35;;;8.20;99.90;;;;;;5150984;27;20074;-64
2024/03/18 02:05:10;;;;;;;17.75;15.48;;;8.20;99.90;;;;;;5151307;27;20087;-64
2024/03/18 02:07:37;;;;;;;20.52;17.65;;;8.20;99.90;;;;;;5149517;27;20118;-64
2024/03/18 02:10:04;;;;;;;23.38;17.00;;;8.20;99.90;;;;;;5121444;27;20358;-64
2024/03/18 02:12:30;;;;;;;18.92;15.93;;;8.20;99.90;;;;;;5122752;27;20064;-64
2024/03/18 02:14:56;;;;;;;19.25;15.43;;;8.20;99.90;;;;;;5116662;27;20073;-64
2024/03/18 02:17:22;;;;;;;18.60;15.82;;;8.20;99.90;;;;;;5120225;27;20035;-64
2024/03/18 02:19:47;;;;;;;18.75;16.77;;;8.10;99.90;;;;;;5117715;27;20047;-64
2024/03/18 02:22:13;;;;;;;19.67;16.60;;;8.20;99.90;;;;;;5121118;27;20055;-64
2024/03/18 02:24:39;;;;;;;22.02;17.23;;;8.10;99.90;;;;;;5120478;27;20038;-64
2024/03/18 02:27:06;;;;;;;19.25;17.20;;;8.10;99.90;;;;;;5120636;27;20442;-64
2024/03/18 02:29:32;;;;;;;17.83;15.93;;;8.10;99.90;;;;;;5120018;27;20035;-64
2024/03/18 02:31:58;;;;;;;21.77;18.05;;;8.10;99.90;;;;;;5121772;27;20035;-64
2024/03/18 02:34:23;;;;;;;19.90;16.98;;;8.20;99.90;;;;;;5118339;27;20031;-64
2024/03/18 02:36:49;;;;;;;20.00;16.27;;;8.10;99.90;;;;;;5121592;27;20505;-64
2024/03/18 02:39:15;;;;;;;23.00;16.77;;;8.10;99.90;;;;;;5150885;27;20059;-64
2024/03/18 02:41:40;;;;;;;20.92;16.40;;;8.10;99.90;;;;;;5116036;27;20050;-64
2024/03/18 02:44:11;;;;;;;21.92;17.27;;;8.10;99.90;;;;;;5116303;27;20042;-64
2024/03/18 02:46:37;;;;;;;19.10;16.98;;;8.10;99.90;;;;;;5119257;27;20043;-64
2024/03/18 02:49:03;;;;;;;21.38;17.23;;;8.10;99.90;;;;;;5119968;27;20045;-64
2024/03/18 02:51:29;;;;;;;21.52;16.88;;;8.10;99.90;;;;;;5121574;27;20483;-64
2024/03/18 02:53:54;;;;;;;20.85;17.10;;;8.10;99.90;;;;;;5150260;27;20055;-64
2024/03/18 02:56:20;;;;;;;21.10;17.45;;;8.10;99.90;;;;;;5119482;27;20068;-64
2024/03/18 02:58:45;;;;;;;21.13;17.85;;;8.10;99.90;;;;;;5117064;27;20040;-64
2024/03/18 03:01:11;;;;;;;22.95;18.08;;;8.10;99.90;;;;;;5119386;28;20031;-64
2024/03/18 03:03:37;;;;;;;20.42;16.77;;;8.10;99.90;;;;;;5118868;27;20031;-64
2024/03/18 03:06:04;;;;;;;24.35;17.73;;;8.10;99.90;;;;;;5152153;27;20603;-64
2024/03/18 03:08:30;;;;;;;22.20;18.50;;;8.10;99.90;;;;;;5120407;27;20034;-64
2024/03/18 03:10:56;;;;;;;20.45;18.25;;;8.00;99.90;;;;;;5120864;27;20046;-64
2024/03/18 03:13:22;;;;;;;26.80;18.30;;;8.10;99.90;;;;;;5118108;27;20031;-64
2024/03/18 03:15:47;;;;;;;20.55;17.45;;;8.10;99.90;;;;;;5148438;27;20046;-64
2024/03/18 03:18:14;;;;;;;28.00;18.85;;;8.10;99.90;;;;;;5148219;27;20588;-64
2024/03/18 03:20:40;;;;;;;25.50;19.30;;;8.10;99.90;;;;;;5150795;27;20053;-64
2024/03/18 03:23:11;;;;;;;24.27;18.33;;;8.10;99.90;;;;;;5116041;27;20075;-64
2024/03/18 03:25:37;;;;;;;21.35;18.80;;;8.10;99.90;;;;;;5120823;27;20047;-64
2024/03/18 03:28:04;;;;;;;23.80;18.45;;;8.10;99.90;;;;;;5149992;27;20108;-64
2024/03/18 03:30:29;;;;;;;24.00;18.05;;;8.10;99.90;;;;;;5116805;27;20047;-64
2024/03/18 03:32:55;;;;;;;24.77;19.13;;;8.10;99.90;;;;;;5120418;28;20042;-64
2024/03/18 03:35:21;;;;;;;26.00;18.75;;;8.10;99.90;;;;;;5120361;27;20382;-64
2024/03/18 03:37:46;;;;;;;24.20;19.80;;;8.10;99.90;;;;;;5121529;27;20032;-64
2024/03/18 03:40:13;;;;;;;22.58;20.15;;;8.20;99.90;;;;;;5116795;27;20072;-64
2024/03/18 03:42:39;;;;;;;25.98;19.92;;;8.10;99.90;;;;;;5119843;27;20089;-64
2024/03/18 03:45:07;;;;;;;22.17;19.88;;;8.10;99.90;;;;;;5119285;27;20066;-64
2024/03/18 03:47:33;;;;;;;23.10;20.67;;;8.10;99.90;;;;;;5122426;27;20392;-64
2024/03/18 03:49:59;;;;;;;26.55;20.35;;;8.10;99.90;;;;;;5117284;27;20450;-64
2024/03/18 03:52:24;;;;;;;23.30;20.85;;;8.20;99.90;;;;;;5150541;27;20065;-64
2024/03/18 03:54:50;;;;;;;26.20;19.75;;;8.10;99.90;;;;;;5135386;27;20047;-64
2024/03/18 03:57:15;;;;;;;27.13;20.75;;;8.20;99.90;;;;;;5153710;27;20475;-64
2024/03/18 03:59:41;;;;;;;24.75;21.02;;;8.20;99.90;;;;;;5121122;27;20120;-64
2024/03/18 04:02:10;;;;;;;26.80;21.23;;;8.20;99.90;;;;;;5121479;27;20100;-64
2024/03/18 04:04:35;;;;;;;26.40;21.25;;;8.10;99.90;;;;;;5152691;27;20083;-64
2024/03/18 04:07:01;;;;;;;26.33;20.45;;;8.10;99.90;;;;;;5155458;27;20468;-64
2024/03/18 04:09:28;;;;;;;25.58;21.15;;;8.20;99.90;;;;;;5123132;27;20043;-64
2024/03/18 04:11:54;;;;;;;26.15;21.58;;;8.20;99.90;;;;;;5156461;27;20054;-64
2024/03/18 04:14:19;;;;;;;26.38;21.67;;;8.20;99.90;;;;;;5123292;27;20035;-64
2024/03/18 04:16:45;;;;;;;25.17;21.45;;;8.20;99.90;;;;;;5119989;27;20067;-64
2024/03/18 04:19:12;;;;;;;26.63;21.48;;;8.10;99.90;;;;;;5120939;27;20047;-64
2024/03/18 04:21:38;;;;;;;27.60;20.95;;;8.20;99.90;;;;;;5120383;27;20039;-64
2024/03/18 04:24:03;;;;;;;24.75;21.75;;;8.20;99.90;;;;;;5122074;27;20055;-64
2024/03/18 04:26:29;;;;;;;26.17;22.42;;;8.20;99.90;;;;;;5123239;27;20089;-64
2024/03/18 04:28:55;;;;;;;27.33;22.75;;;8.10;99.90;;;;;;5119442;27;20039;-64
2024/03/18 04:31:21;;;;;;;27.85;21.60;;;8.20;99.90;;;;;;5116684;27;20434;-64
2024/03/18 04:33:50;;;;;;;30.27;21.98;;;8.10;99.90;;;;;;5123682;27;20027;-64
2024/03/18 04:36:16;;;;;;;30.25;22.35;;;8.20;99.90;;;;;;5152842;27;20050;-64
2024/03/18 04:38:41;;;;;;;29.30;23.30;;;8.20;99.90;;;;;;5122034;27;20039;-64
2024/03/18 04:41:08;;;;;;;30.70;22.95;;;8.10;99.90;;;;;;5125429;27;20039;-64
2024/03/18 04:43:34;;;;;;;30.17;22.55;;;8.10;99.90;;;;;;5123301;27;20064;-64
2024/03/18 04:46:00;;;;;;;31.15;23.20;;;8.10;99.90;;;;;;5123732;27;20043;-64
2024/03/18 04:48:25;;;;;;;29.92;23.65;;;8.10;99.90;;;;;;5119209;27;20038;-64
2024/03/18 04:50:51;;;;;;;29.42;22.27;;;8.10;99.90;;;;;;5124097;27;20113;-64
2024/03/18 04:53:17;;;;;;;33.58;23.85;;;8.10;99.90;;;;;;5122880;27;20095;-64
2024/03/18 04:55:42;;;;;;;32.55;24.25;;;8.10;99.90;;;;;;5139702;27;20039;-64
2024/03/18 04:58:08;;;;;;;32.10;22.80;;;8.10;99.90;;;;;;5123370;27;20103;-64
2024/03/18 05:00:34;;;;;;;32.13;24.50;;;8.10;99.90;;;;;;5122223;27;20024;-64
2024/03/18 05:03:00;;;;;;;39.45;24.92;;;8.10;99.90;;;;;;5119606;27;20039;-64
2024/03/18 05:05:26;;;;;;;34.13;23.70;;;8.10;99.90;;;;;;5123251;27;20802;-64
2024/03/18 05:07:53;;;;;;;31.00;23.35;;;8.10;99.90;;;;;;5120643;27;20107;-64
2024/03/18 05:10:21;;;;;;;34.30;25.75;;;8.10;99.90;;;;;;5120211;27;20040;-64
2024/03/18 05:12:48;;;;;;;31.73;24.58;;;8.10;99.90;;;;;;5152705;27;20035;-64
2024/03/18 05:15:14;;;;;;;34.85;24.75;;;8.10;99.90;;;;;;5121800;27;20043;-64
2024/03/18 05:17:39;;;;;;;34.25;24.65;;;8.20;99.90;;;;;;5150752;27;20371;-64
2024/03/18 05:20:12;;;;;;;36.88;26.58;;;8.10;99.90;;;;;;5119702;27;20031;-64
2024/03/18 05:22:38;;;;;;;36.15;25.02;;;8.10;99.90;;;;;;5120502;27;20031;-64
2024/03/18 05:25:07;;;;;;;37.17;25.40;;;8.10;99.90;;;;;;5151601;27;20050;-64
2024/03/18 05:27:33;;;;;;;36.50;26.30;;;8.10;99.90;;;;;;5118468;27;20047;-64
2024/03/18 05:30:00;;;;;;;31.25;25.20;;;8.20;99.90;;;;;;5119475;27;20035;-64
2024/03/18 05:32:26;;;;;;;38.47;25.63;;;8.20;99.90;;;;;;5117700;27;20036;-64
2024/03/18 05:34:52;;;;;;;37.28;25.10;;;8.20;99.90;;;;;;5117575;27;20031;-64
2024/03/18 05:37:18;;;;;;;48.70;27.65;;;8.20;99.90;;;;;;5123202;27;20084;-64
2024/03/18 05:39:44;;;;;;;38.97;25.70;;;8.20;99.90;;;;;;5120810;27;20047;-64
2024/03/18 05:42:09;;;;;;;41.60;26.67;;;8.20;99.90;;;;;;5120542;27;20053;-64
2024/03/18 05:44:35;;;;;;;41.55;27.27;;;8.20;99.90;;;;;;5113909;27;20481;-64
2024/03/18 05:47:01;;;;;;;41.08;26.00;;;8.20;99.90;;;;;;5117588;27;20046;-64
2024/03/18 05:49:27;;;;;;;51.63;28.25;;;8.20;99.90;;;;;;5118129;27;20041;-64
2024/03/18 05:51:54;;;;;;;48.35;27.88;;;8.20;99.90;;;;;;5149165;27;20367;-64
2024/03/18 05:54:20;;;;;;;41.28;27.25;;;8.20;99.90;;;;;;5122710;27;20039;-64
2024/03/18 05:56:46;;;;;;;41.30;26.52;;;8.30;99.90;;;;;;5103681;27;20044;-64
2024/03/18 05:59:13;;;;;;;41.03;27.05;;;8.30;99.90;;;;;;5122216;27;20051;-64
2024/03/18 06:01:39;;;;;;;49.67;27.95;;;8.30;99.90;;;;;;5121677;27;20493;-64
2024/03/18 06:04:06;;;;;;;56.72;29.98;;;8.30;99.90;;;;;;5117548;27;20435;-64
2024/03/18 06:06:32;;;;;;;58.28;29.10;;;8.50;99.90;;;;;;5117333;27;20047;-64
2024/03/18 06:08:59;;;;;;;59.92;31.02;;;8.30;99.90;;;;;;5122698;27;20042;-64
2024/03/18 06:11:25;;;;;;;65.18;29.48;;;8.30;99.90;;;;;;5150128;27;20365;-64
2024/03/18 06:13:51;;;;;;;58.45;30.95;;;8.30;99.90;;;;;;5149426;27;20051;-64
2024/03/18 06:16:17;;;;;;;60.78;29.92;;;8.30;99.90;;;;;;5119292;27;20035;-64
2024/03/18 06:18:42;;;;;;;75.72;32.95;;;8.30;99.90;;;;;;5117307;27;20035;-64
2024/03/18 06:21:16;;;;;;;84.30;33.65;;;8.30;99.90;;;;;;5119998;27;20039;-64
2024/03/18 06:23:54;;;;;;;81.18;32.70;;;8.30;99.90;;;;;;5152195;27;20043;-64
2024/03/18 06:26:23;;;;;;;63.25;31.63;;;8.40;99.90;;;;;;5114796;27;20134;-64
2024/03/18 06:28:49;;;;;;;74.05;32.83;;;8.30;99.90;;;;;;5148946;27;20040;-64
2024/03/18 06:31:15;;;;;;;69.78;33.38;;;8.40;99.90;;;;;;5117691;27;20047;-64
2024/03/18 06:33:43;;;;;;;79.70;32.40;;;8.40;99.90;;;;;;5122386;27;20205;-64
2024/03/18 06:36:09;;;;;;;84.60;34.75;;;8.40;99.90;;;;;;5124928;27;20050;-64
2024/03/18 06:38:36;;;;;;;81.85;35.42;;;8.30;99.90;;;;;;5120638;27;20042;-64
2024/03/18 06:41:02;;;;;;;88.95;35.08;;;8.40;99.90;;;;;;5119950;27;20073;-64
2024/03/18 06:43:27;;;;;;;68.22;32.95;;;8.30;99.90;;;;;;5124554;27;20443;-64
2024/03/18 06:45:53;;;;;;;73.60;33.13;;;8.40;99.90;;;;;;5123536;27;20112;-64
2024/03/18 06:48:19;;;;;;;90.10;35.53;;;8.40;99.90;;;;;;5121369;27;20040;-64
2024/03/18 06:50:44;;;;;;;86.43;34.38;;;8.40;99.90;;;;;;5153134;27;20039;-64
2024/03/18 06:53:10;;;;;;;91.63;36.22;;;8.40;99.90;;;;;;5119650;28;20051;-64
2024/03/18 06:55:36;;;;;;;72.82;33.95;;;8.40;99.90;;;;;;5122053;28;20043;-64
2024/03/18 06:58:05;;;;;;;97.60;37.13;;;8.50;99.90;;;;;;5117498;28;20043;-64
2024/03/18 07:00:31;;;;;;;75.50;34.88;;;8.40;99.90;;;;;;5117887;27;20389;-64
2024/03/18 07:02:57;;;;;;;108.25;36.10;;;8.40;99.90;;;;;;5116854;28;20047;-64
2024/03/18 07:05:24;;;;;;;97.35;38.05;;;8.40;99.90;;;;;;5115950;27;20040;-64
2024/03/18 07:07:53;;;;;;;88.90;37.85;;;8.50;99.90;;;;;;5117355;28;20082;-64
2024/03/18 07:10:19;;;;;;;83.93;34.47;;;8.40;99.90;;;;;;5118828;28;20075;-64
2024/03/18 07:12:46;;;;;;;85.93;36.50;;;8.50;99.90;;;;;;5118970;27;20425;-64
2024/03/18 07:15:13;;;;;;;99.07;38.22;;;8.50;99.90;;;;;;5126288;27;20043;-64
2024/03/18 07:17:40;;;;;;;106.68;36.85;;;8.50;99.90;;;;;;5123552;27;20049;-65
2024/03/18 07:20:07;;;;;;;119.30;39.53;;;8.40;99.90;;;;;;5152083;27;20751;-64
2024/03/18 07:22:37;;;;;;;112.78;39.10;;;8.50;99.90;;;;;;5116051;28;20043;-65
2024/03/18 07:25:09;;;;;;;97.57;36.30;;;8.50;99.90;;;;;;5123265;27;20123;-64
2024/03/18 07:27:38;;;;;;;94.65;35.50;;;8.60;99.90;;;;;;5119965;28;20078;-64
2024/03/18 07:30:08;;;;;;;136.20;40.28;;;8.60;99.90;;;;;;5125066;27;20508;-64
2024/03/18 07:32:34;;;;;;;110.45;37.47;;;8.60;99.90;;;;;;5127039;27;20465;-64
2024/03/18 07:35:00;;;;;;;100.90;37.63;;;8.70;99.90;;;;;;5157310;27;20048;-64
2024/03/18 07:37:28;;;;;;;138.98;39.42;;;8.60;99.90;;;;;;5126639;27;20045;-64
2024/03/18 07:39:54;;;;;;;136.45;43.08;;;8.70;99.90;;;;;;5127030;27;20051;-64
2024/03/18 07:42:20;;;;;;;113.63;39.03;;;8.70;99.90;;;;;;5121869;27;20061;-64
2024/03/18 07:44:46;;;;;;;91.68;37.78;;;8.70;99.90;;;;;;5125414;27;20397;-64
2024/03/18 07:47:12;;;;;;;115.15;39.75;;;8.70;99.90;;;;;;5153662;27;20074;-64
2024/03/18 07:49:38;;;;;;;101.78;38.60;;;8.70;99.90;;;;;;5122168;27;20047;-64
2024/03/18 07:52:05;;;;;;;103.78;36.75;;;8.80;99.90;;;;;;5157428;27;20070;-64
2024/03/18 07:54:34;;;;;;;116.22;38.88;;;8.80;99.90;;;;;;5126663;27;20123;-64
2024/03/18 07:57:06;;;;;;;125.25;40.50;;;8.70;99.90;;;;;;5120852;27;20131;-64
2024/03/18 07:59:32;;;;;;;82.25;35.67;;;8.80;99.90;;;;;;5123248;27;20074;-64
2024/03/18 08:01:59;;;;;;;131.82;41.10;;;8.80;99.90;;;;;;5126717;27;20043;-64
2024/03/18 08:04:26;;;;;;;110.20;40.22;;;8.90;99.90;;;;;;5124591;27;20124;-64
2024/03/18 08:06:52;;;;;;;105.18;37.80;;;8.80;99.90;;;;;;5125767;27;20039;-64
2024/03/18 08:09:18;;;;;;;98.95;37.83;;;8.90;99.90;;;;;;5128959;27;20043;-64
2024/03/18 08:11:45;;;;;;;105.75;39.63;;;9.00;99.90;;;;;;5119372;27;20039;-64
2024/03/18 08:14:11;;;;;;;115.20;43.67;;;9.00;99.90;;;;;;5124300;27;20485;-64
2024/03/18 08:16:37;;;;;;;96.25;40.22;;;9.00;99.90;;;;;;5124854;27;20145;-64
2024/03/18 08:19:03;;;;;;;98.38;39.90;;;9.00;99.90;;;;;;5127895;27;20658;-64
2024/03/18 08:21:33;;;;;;;91.22;38.03;;;9.10;99.90;;;;;;5125760;27;20083;-64
2024/03/18 08:23:59;;;;;;;107.70;40.40;;;9.10;99.90;;;;;;5126065;27;20046;-65
2024/03/18 08:26:25;;;;;;;111.35;39.38;;;9.20;99.90;;;;;;5127991;27;20477;-65
2024/03/18 08:28:51;;;;;;;93.95;38.90;;;9.20;99.90;;;;;;5123214;27;20040;-64
2024/03/18 08:31:17;;;;;;;104.93;41.38;;;9.20;99.90;;;;;;5128814;27;20046;-64
2024/03/18 08:33:42;;;;;;;102.18;40.25;;;9.20;99.90;;;;;;5118339;27;20118;-64
2024/03/18 08:36:08;;;;;;;104.78;41.50;;;9.30;99.90;;;;;;5127071;27;20039;-65
2024/03/18 08:38:34;;;;;;;98.47;39.97;;;9.30;99.90;;;;;;5125247;27;20035;-65
2024/03/18 08:40:59;;;;;;;89.15;40.03;;;9.30;99.90;;;;;;5123916;27;21423;-64
2024/03/18 08:43:25;;;;;;;71.78;36.75;;;9.30;99.90;;;;;;5151791;27;21810;-64
2024/03/18 08:45:56;;;;;;;94.68;40.42;;;9.40;99.90;;;;;;5123370;27;20043;-64
2024/03/18 08:48:22;;;;;;;101.15;40.67;;;9.40;99.90;;;;;;5121382;27;20039;-64
2024/03/18 08:50:48;;;;;;;88.43;38.85;;;9.40;99.90;;;;;;5122858;27;20043;-65
2024/03/18 08:53:32;;;;;;;80.80;39.67;;;9.50;99.90;;;;;;5122558;27;20089;-65
2024/03/18 08:55:57;;;;;;;85.10;38.67;;;9.40;99.90;;;;;;5120188;27;20123;-65
2024/03/18 08:58:23;;;;;;;84.63;37.58;;;9.50;99.90;;;;;;5152889;27;20126;-64
2024/03/18 09:00:54;;;;;;;88.68;39.30;;;9.50;99.90;;;;;;5124204;27;20070;-64
2024/03/18 09:03:19;;;;;;;93.22;40.00;;;9.60;99.90;;;;;;5153300;27;20047;-64
2024/03/18 09:05:55;;;;;;;78.28;39.53;;;9.60;99.90;;;;;;5122778;27;20126;-64
2024/03/18 09:08:22;;;;;;;102.22;42.17;;;9.60;99.90;;;;;;5103443;28;20058;-64
2024/03/18 09:10:48;;;;;;;83.18;39.35;;;9.70;99.90;;;;;;5139521;27;20050;-64
2024/03/18 09:13:14;;;;;;;98.45;41.35;;;9.80;99.90;;;;;;5119963;27;20495;-65
2024/03/18 09:15:40;;;;;;;82.05;39.70;;;9.80;99.90;;;;;;5120301;27;20106;-64
2024/03/18 09:18:06;;;;;;;75.40;39.47;;;9.90;99.90;;;;;;5118652;27;20035;-65
2024/03/18 09:20:32;;;;;;;78.95;38.75;;;9.90;99.90;;;;;;5121794;27;20459;-64
2024/03/18 09:22:57;;;;;;;79.85;37.05;;;9.90;99.90;;;;;;5154873;27;20043;-65
2024/03/18 09:25:23;;;;;;;77.88;38.10;;;9.90;99.90;;;;;;5122664;27;20085;-64
2024/03/18 09:27:49;;;;;;;73.65;38.35;;;10.00;99.90;;;;;;5122893;27;20027;-65
2024/03/18 09:30:16;;;;;;;75.55;36.88;;;10.00;99.90;;;;;;5121617;27;20557;-64
2024/03/18 09:32:42;;;;;;;74.93;38.03;;;10.00;99.90;;;;;;5127705;27;20068;-64
2024/03/18 09:35:08;;;;;;;75.10;37.60;;;10.10;99.90;;;;;;5119944;27;20099;-64
2024/03/18 09:37:35;;;;;;;74.95;38.25;;;10.00;99.90;;;;;;5124507;27;20537;-64
2024/03/18 09:40:01;;;;;;;75.07;38.03;;;10.10;99.90;;;;;;5120604;27;20047;-64
2024/03/18 09:42:30;;;;;;;82.43;38.78;;;10.10;99.90;;;;;;5119463;27;20035;-64
2024/03/18 09:44:56;;;;;;;76.40;39.15;;;10.10;99.90;;;;;;5118517;27;20054;-65
2024/03/18 09:47:24;;;;;;;75.00;38.13;;;10.20;99.90;;;;;;5120607;27;20040;-64
2024/03/18 09:49:52;;;;;;;72.43;38.90;;;10.20;99.90;;;;;;5118693;27;20055;-64
2024/03/18 09:52:18;;;;;;;69.97;37.60;;;10.20;99.90;;;;;;5119046;27;20036;-64
2024/03/18 09:54:51;;;;;;;71.82;36.95;;;10.30;99.90;;;;;;5122791;27;20035;-64
2024/03/18 09:57:24;;;;;;;72.57;37.90;;;10.30;99.90;;;;;;5127030;27;20042;-65
2024/03/18 09:59:50;;;;;;;76.22;39.47;;;10.30;99.90;;;;;;5154055;27;20481;-65
2024/03/18 10:02:16;;;;;;;68.97;36.53;;;10.40;99.90;;;;;;5122212;27;20031;-64
2024/03/18 10:04:42;;;;;;;61.03;36.40;;;10.30;99.90;;;;;;5123625;27;20043;-65
2024/03/18 10:07:15;;;;;;;73.28;39.55;;;10.40;99.90;;;;;;5152063;27;20047;-64
2024/03/18 10:09:45;;;;;;;69.90;37.10;;;10.40;99.90;;;;;;5122714;27;20118;-64
2024/03/18 10:12:12;;;;;;;73.53;38.83;;;10.40;99.90;;;;;;5121932;27;20436;-64
2024/03/18 10:14:38;;;;;;;65.88;36.53;;;10.40;99.90;;;;;;5103688;27;20096;-64
2024/03/18 10:17:04;;;;;;;66.95;38.30;;;10.40;99.90;;;;;;5152362;27;20709;-64
2024/03/18 10:19:30;;;;;;;65.50;37.33;;;10.40;99.90;;;;;;5124238;27;20055;-64
2024/03/18 10:21:56;;;;;;;63.30;35.38;;;10.40;99.90;;;;;;5119286;27;20039;-64
2024/03/18 10:24:22;;;;;;;62.08;35.55;;;10.40;99.90;;;;;;5121901;27;20042;-64
2024/03/18 10:26:50;;;;;;;71.45;39.30;;;10.40;99.90;;;;;;5154475;27;20047;-64
2024/03/18 10:29:16;;;;;;;69.03;37.75;;;10.40;99.90;;;;;;5121169;27;20032;-65
2024/03/18 10:31:42;;;;;;;72.97;37.13;;;10.40;99.90;;;;;;5122503;27;20477;-65
2024/03/18 10:34:21;;;;;;;69.22;36.25;;;10.50;99.90;;;;;;5153329;27;20553;-64
2024/03/18 10:36:53;;;;;;;68.22;36.30;;;10.50;99.90;;;;;;5120909;27;20070;-65
2024/03/18 10:39:39;;;;;;;67.22;35.60;;;10.60;99.90;;;;;;5124909;27;20092;-65
2024/03/18 10:42:11;;;;;;;67.88;35.85;;;10.70;99.90;;;;;;5150267;27;20141;-65
2024/03/18 10:44:40;;;;;;;64.28;35.83;;;10.70;99.90;;;;;;5119599;27;20078;-64
2024/03/18 10:47:10;;;;;;;78.50;37.13;;;10.90;99.90;;;;;;5124340;28;20420;-65
2024/03/18 10:49:35;;;;;;;66.05;36.03;;;11.00;99.90;;;;;;5119596;27;20047;-64
2024/03/18 10:52:02;;;;;;;64.93;36.20;;;11.10;99.90;;;;;;5119551;28;20042;-65
2024/03/18 10:54:28;;;;;;;60.55;35.65;;;11.20;99.90;;;;;;5120949;27;20050;-65
2024/03/18 10:56:53;;;;;;;60.72;34.90;;;11.50;99.90;;;;;;5119916;27;20489;-64
2024/03/18 10:59:19;;;;;;;59.63;33.67;;;11.70;99.90;;;;;;5119740;28;20611;-64
2024/03/18 11:01:46;;;;;;;49.50;32.28;;;11.80;99.90;;;;;;5151759;27;20040;-65
2024/03/18 11:04:20;;;;;;;48.55;31.30;;;12.00;99.90;;;;;;5125851;27;20126;-65
2024/03/18 11:06:49;;;;;;;43.47;29.88;;;12.30;99.90;;;;;;5127078;27;20088;-64
2024/03/18 11:09:23;;;;;;;42.13;29.13;;;12.40;99.90;;;;;;5121937;27;20032;-64
2024/03/18 11:11:50;;;;;;;38.45;27.90;;;12.60;99.90;;;;;;5127621;27;20055;-65
2024/03/18 11:14:29;;;;;;;36.67;27.25;;;12.60;99.90;;;;;;5125875;27;20052;-65
2024/03/18 11:16:55;;;;;;;32.15;24.73;;;12.80;99.90;;;;;;5154403;27;20126;-64
2024/03/18 11:19:26;;;;;;;26.50;22.05;;;12.90;99.90;;;;;;5125207;27;20047;-65
2024/03/18 11:22:05;;;;;;;28.55;23.55;;;13.00;99.90;;;;;;5132594;27;20035;-65
2024/03/18 11:24:31;;;;;;;30.02;22.23;;;13.00;99.90;;;;;;5124635;27;20084;-65
2024/03/18 11:26:58;;;;;;;26.55;22.00;;;13.00;99.90;;;;;;5124019;27;20039;-65
2024/03/18 11:29:37;;;;;;;23.75;20.55;;;13.00;99.90;;;;;;5127624;27;20418;-65
2024/03/18 11:32:03;;;;;;;27.42;20.92;;;13.00;99.90;;;;;;5130482;27;20111;-64
2024/03/18 11:34:31;;;;;;;25.20;20.10;;;13.00;99.90;;;;;;5125033;27;20564;-65
2024/03/18 11:36:59;;;;;;;24.30;20.15;;;13.00;99.90;;;;;;5129114;27;20056;-65
2024/03/18 11:39:27;;;;;;;24.40;21.27;;;13.00;99.90;;;;;;5123116;27;20051;-64
2024/03/18 11:42:03;;;;;;;23.48;20.75;;;13.00;99.90;;;;;;5124804;27;20055;-64
2024/03/18 11:44:32;;;;;;;28.05;22.40;;;12.90;99.90;;;;;;5119670;27;20526;-65
2024/03/18 11:47:05;;;;;;;25.27;21.08;;;12.80;99.90;;;;;;5122955;27;20039;-65
2024/03/18 11:49:32;;;;;;;24.30;20.50;;;12.80;99.90;;;;;;5120553;27;20169;-65
2024/03/18 11:51:58;;;;;;;22.67;20.00;;;12.80;99.90;;;;;;5119202;27;20042;-65
2024/03/18 11:54:24;;;;;;;23.65;20.38;;;12.80;99.90;;;;;;5124140;27;20424;-65
2024/03/18 11:56:54;;;;;;;23.73;20.05;;;12.70;99.90;;;;;;5123377;27;20065;-64
2024/03/18 11:59:19;;;;;;;22.80;20.13;;;12.70;99.90;;;;;;5126226;27;20096;-65
2024/03/18 12:01:45;;;;;;;23.88;18.10;;;12.70;99.90;;;;;;5126184;27;20043;-65
2024/03/18 12:04:18;;;;;;;18.75;16.38;;;12.70;99.90;;;;;;5124251;27;20130;-65
2024/03/18 12:06:45;;;;;;;20.02;15.52;;;12.60;99.90;;;;;;5153939;27;20051;-65
2024/03/18 12:09:11;;;;;;;17.75;15.18;;;12.60;99.90;;;;;;5155095;27;20080;-65
2024/03/18 12:11:38;;;;;;;17.15;15.32;;;12.60;99.90;;;;;;5121390;27;20047;-64
2024/03/18 12:14:04;;;;;;;19.20;16.38;;;12.60;99.90;;;;;;5121725;27;20040;-64
2024/03/18 12:16:32;;;;;;;15.90;14.02;;;12.60;99.90;;;;;;5107115;27;20108;-64
2024/03/18 12:19:05;;;;;;;18.98;14.30;;;12.60;99.90;;;;;;5150862;27;20078;-64
2024/03/18 12:21:38;;;;;;;16.05;14.40;;;12.50;99.90;;;;;;5125146;27;20062;-64
2024/03/18 12:29:37;;;;;;;17.00;12.32;;;12.50;99.90;;;;;;5122283;27;20035;-64
2024/03/18 12:32:04;;;;;;;16.92;12.70;;;12.50;99.90;;;;;;5123638;27;20039;-65
2024/03/18 12:34:32;;;;;;;13.20;11.63;;;12.40;99.90;;;;;;5123712;27;20064;-64
2024/03/18 12:37:01;;;;;;;14.73;12.82;;;12.50;99.90;;;;;;5123092;27;20524;-64